createdAt,value
2022-09-04T00:01:47.253Z,3.23
2022-09-04T00:04:23.116Z,3.10
2022-09-04T00:06:59.418Z,3.50
2022-09-04T00:09:32.674Z,3.53
2022-09-04T00:12:05.680Z,3.20
2022-09-04T00:14:42.252Z,3.43
2022-09-04T00:17:12.814Z,3.20
2022-09-04T00:19:44.045Z,3.30
2022-09-04T00:22:23.265Z,3.50
2022-09-04T00:24:59.702Z,3.47
2022-09-04T00:27:32.924Z,3.57
2022-09-04T00:30:11.415Z,3.50
2022-09-04T00:32:41.986Z,3.57
2022-09-04T00:35:15.433Z,3.77
2022-09-04T00:37:48.210Z,3.30
2022-09-04T00:40:24.530Z,3.73
2022-09-04T00:43:08.150Z,3.83
2022-09-04T00:45:52.041Z,3.80
2022-09-04T00:48:30.132Z,3.63
2022-09-04T00:51:07.090Z,3.30
2022-09-04T00:53:51.437Z,3.40
2022-09-04T00:56:36.338Z,3.70
2022-09-04T00:59:15.015Z,3.87
2022-09-04T01:01:45.085Z,3.60
2022-09-04T01:04:37.965Z,3.50
2022-09-04T01:07:22.921Z,4.13
2022-09-04T01:10:06.537Z,3.60
2022-09-04T01:12:40.125Z,3.60
2022-09-04T01:15:17.691Z,3.40
2022-09-04T01:17:53.370Z,3.87
2022-09-04T01:20:29.013Z,3.87
2022-09-04T01:23:22.107Z,3.70
2022-09-04T01:26:08.825Z,4.10
2022-09-04T01:28:43.754Z,3.53
2022-09-04T01:31:21.352Z,3.37
2022-09-04T01:33:56.714Z,3.50
2022-09-04T01:36:31.926Z,3.83
2022-09-04T01:39:01.330Z,3.37
2022-09-04T01:41:37.729Z,3.60
2022-09-04T01:44:07.707Z,3.67
2022-09-04T01:46:42.892Z,3.30
2022-09-04T01:49:20.514Z,3.47
2022-09-04T01:51:59.618Z,3.57
2022-09-04T01:54:38.520Z,3.60
2022-09-04T01:57:17.070Z,3.53
2022-09-04T01:59:55.304Z,3.57
2022-09-04T02:02:29.522Z,4.13
2022-09-04T02:05:07.745Z,3.30
2022-09-04T02:07:41.995Z,3.83
2022-09-04T02:10:14.089Z,3.90
2022-09-04T02:12:52.093Z,3.80
2022-09-04T02:15:30.861Z,3.57
2022-09-04T02:18:11.518Z,3.53
2022-09-04T02:20:41.907Z,3.50
2022-09-04T02:23:15.033Z,4.43
2022-09-04T02:25:48.699Z,4.03
2022-09-04T02:28:25.047Z,3.87
2022-09-04T02:30:58.354Z,4.10
2022-09-04T02:33:32.546Z,3.73
2022-09-04T02:36:05.831Z,4.00
2022-09-04T02:38:39.676Z,3.33
2022-09-04T02:41:13.037Z,3.70
2022-09-04T02:43:57.512Z,3.87
2022-09-04T02:46:29.474Z,3.90
2022-09-04T02:49:07.467Z,3.67
2022-09-04T02:51:50.623Z,3.63
2022-09-04T02:54:22.508Z,4.03
2022-09-04T02:56:58.554Z,3.87
2022-09-04T02:59:39.011Z,4.00
2022-09-04T03:02:09.722Z,3.87
2022-09-04T03:04:42.826Z,3.67
2022-09-04T03:07:13.334Z,3.80
2022-09-04T03:09:44.818Z,3.80
2022-09-04T03:12:26.616Z,4.10
2022-09-04T03:15:02.568Z,4.07
2022-09-04T03:17:35.654Z,4.20
2022-09-04T03:20:08.854Z,4.13
2022-09-04T03:22:42.826Z,3.97
2022-09-04T03:25:29.280Z,4.30
2022-09-04T03:27:57.197Z,3.93
2022-09-04T03:30:26.701Z,3.93
2022-09-04T03:32:58.654Z,4.40
2022-09-04T03:35:33.010Z,3.97
2022-09-04T03:38:12.875Z,3.90
2022-09-04T03:40:43.191Z,4.20
2022-09-04T03:43:21.978Z,4.27
2022-09-04T03:45:57.859Z,4.10
2022-09-04T03:48:35.282Z,4.90
2022-09-04T03:51:08.506Z,4.10
2022-09-04T03:53:42.018Z,4.03
2022-09-04T03:56:38.424Z,3.93
2022-09-04T03:59:07.420Z,3.70
2022-09-04T04:01:43.193Z,4.00
2022-09-04T04:04:49.235Z,4.03
2022-09-04T04:07:25.514Z,4.17
2022-09-04T04:10:04.395Z,3.97
2022-09-04T04:12:43.593Z,3.90
2022-09-04T04:15:24.201Z,3.73
2022-09-04T04:18:13.282Z,4.10
2022-09-04T04:20:46.030Z,4.00
2022-09-04T04:23:36.273Z,3.70
2022-09-04T04:26:11.742Z,3.67
2022-09-04T04:28:57.039Z,3.87
2022-09-04T04:31:34.545Z,4.10
2022-09-04T04:34:09.126Z,3.83
2022-09-04T04:36:40.096Z,3.43
2022-09-04T04:39:17.382Z,4.37
2022-09-04T04:42:05.522Z,4.03
2022-09-04T04:45:00.238Z,3.73
2022-09-04T04:47:40.817Z,4.00
2022-09-04T04:50:17.529Z,3.80
2022-09-04T04:52:54.954Z,4.17
2022-09-04T04:55:37.218Z,4.20
2022-09-04T04:58:22.254Z,4.10
2022-09-04T05:00:55.415Z,3.90
2022-09-04T05:03:30.747Z,3.90
2022-09-04T05:06:03.769Z,3.87
2022-09-04T05:08:38.424Z,4.03
2022-09-04T05:11:10.462Z,3.97
2022-09-04T05:13:46.378Z,3.80
2022-09-04T05:16:22.543Z,4.53
2022-09-04T05:18:54.095Z,4.10
2022-09-04T05:21:29.687Z,4.10
2022-09-04T05:24:00.520Z,3.57
2022-09-04T05:26:32.474Z,3.60
2022-09-04T05:29:05.421Z,3.60
2022-09-04T05:31:40.321Z,3.40
2022-09-04T05:34:14.091Z,3.60
2022-09-04T05:36:49.953Z,3.50
2022-09-04T05:39:27.473Z,3.50
2022-09-04T05:42:06.553Z,3.63
2022-09-04T05:44:51.364Z,3.27
2022-09-04T05:47:31.154Z,3.30
2022-09-04T05:50:14.007Z,3.27
2022-09-04T05:53:04.717Z,3.23
2022-09-04T05:55:55.674Z,3.10
2022-09-04T05:58:39.227Z,3.23
2022-09-04T06:01:15.002Z,3.30
2022-09-04T06:03:56.174Z,3.07
2022-09-04T06:06:27.843Z,2.70
2022-09-04T06:09:12.467Z,3.07
2022-09-04T06:11:55.678Z,2.87
2022-09-04T06:14:33.212Z,2.87
2022-09-04T06:17:17.151Z,2.90
2022-09-04T06:19:54.457Z,3.13
2022-09-04T06:22:32.958Z,2.83
2022-09-04T06:25:23.629Z,2.90
2022-09-04T06:28:09.961Z,2.57
2022-09-04T06:30:44.347Z,2.93
2022-09-04T06:33:30.125Z,2.93
2022-09-04T06:36:31.683Z,2.73
2022-09-04T06:39:25.973Z,2.90
2022-09-04T06:42:05.859Z,3.30
2022-09-04T06:44:43.102Z,2.90
2022-09-04T06:47:17.971Z,3.03
2022-09-04T06:49:59.150Z,2.70
2022-09-04T06:52:31.559Z,2.83
2022-09-04T06:55:01.470Z,2.77
2022-09-04T06:57:45.938Z,3.00
2022-09-04T07:00:14.597Z,3.20
2022-09-04T07:03:08.740Z,3.00
2022-09-04T07:05:43.995Z,2.80
2022-09-04T07:08:18.964Z,3.20
2022-09-04T07:10:49.646Z,2.87
2022-09-04T07:13:29.025Z,2.83
2022-09-04T07:16:18.570Z,2.93
2022-09-04T07:19:08.595Z,2.90
2022-09-04T07:21:42.290Z,2.63
2022-09-04T07:24:15.065Z,2.77
2022-09-04T07:26:50.399Z,2.80
2022-09-04T07:29:33.027Z,3.00
2022-09-04T07:32:04.824Z,2.73
2022-09-04T07:34:41.938Z,2.83
2022-09-04T07:37:27.080Z,3.00
2022-09-04T07:40:01.435Z,2.83
2022-09-04T07:42:32.839Z,3.10
2022-09-04T07:45:06.272Z,3.03
2022-09-04T07:47:37.974Z,2.60
2022-09-04T07:50:11.157Z,3.03
2022-09-04T07:53:04.160Z,3.10
2022-09-04T07:55:41.261Z,3.10
2022-09-04T07:58:49.364Z,3.00
2022-09-04T08:01:41.061Z,3.00
2022-09-04T08:04:51.124Z,3.00
2022-09-04T08:07:24.805Z,2.93
2022-09-04T08:10:11.218Z,2.93
2022-09-04T08:12:56.264Z,2.80
2022-09-04T08:15:30.342Z,2.77
2022-09-04T08:18:13.146Z,3.00
2022-09-04T08:20:44.235Z,2.90
2022-09-04T08:23:34.071Z,2.60
2022-09-04T08:26:14.513Z,2.63
2022-09-04T08:29:03.035Z,2.50
2022-09-04T08:31:32.099Z,2.73
2022-09-04T08:34:33.990Z,2.80
2022-09-04T08:37:08.951Z,2.83
2022-09-04T08:39:47.102Z,2.80
2022-09-04T08:42:31.646Z,2.80
2022-09-04T08:45:32.330Z,2.67
2022-09-04T08:48:53.910Z,2.90
2022-09-04T08:51:49.161Z,3.10
2022-09-04T08:55:08.262Z,2.90
2022-09-04T08:58:08.873Z,3.03
2022-09-04T09:00:43.900Z,2.80
2022-09-04T09:03:58.421Z,3.10
2022-09-04T09:06:47.184Z,3.10
2022-09-04T09:09:46.064Z,2.70
2022-09-04T09:12:41.580Z,2.97
2022-09-04T09:15:46.536Z,2.97
2022-09-04T09:18:31.346Z,3.00
2022-09-04T09:21:07.667Z,2.53
2022-09-04T09:23:41.536Z,2.60
2022-09-04T09:26:26.326Z,3.10
2022-09-04T09:29:20.267Z,2.83
2022-09-04T09:32:26.276Z,2.70
2022-09-04T09:35:23.942Z,2.47
2022-09-04T09:38:24.918Z,2.80
2022-09-04T09:41:30.403Z,2.47
2022-09-04T09:44:31.857Z,2.47
2022-09-04T09:47:31.126Z,2.47
2022-09-04T09:50:21.415Z,2.87
2022-09-04T09:53:29.086Z,3.30
2022-09-04T09:56:31.170Z,2.63
2022-09-04T09:59:54.569Z,2.43
2022-09-04T10:02:51.950Z,2.60
2022-09-04T10:06:06.414Z,3.03
2022-09-04T10:09:37.595Z,3.33
2022-09-04T10:12:51.955Z,2.87
2022-09-04T10:15:55.282Z,3.00
2022-09-04T10:19:05.380Z,2.40
2022-09-04T10:22:06.802Z,2.90
2022-09-04T10:24:49.591Z,2.20
2022-09-04T10:27:34.588Z,2.77
2022-09-04T10:30:07.767Z,2.57
2022-09-04T10:33:12.120Z,3.00
2022-09-04T10:35:58.260Z,2.60
2022-09-04T10:39:01.605Z,2.17
2022-09-04T10:41:47.808Z,2.80
2022-09-04T10:44:51.669Z,2.60
2022-09-04T10:47:46.631Z,2.40
2022-09-04T10:50:28.833Z,2.17
2022-09-04T10:53:28.587Z,2.60
2022-09-04T10:56:07.246Z,2.40
2022-09-04T10:58:47.470Z,2.40
2022-09-04T11:01:32.241Z,3.08
2022-09-04T11:04:13.901Z,2.90
2022-09-04T11:07:05.283Z,2.20
2022-09-04T11:10:00.714Z,2.50
2022-09-04T11:12:49.696Z,2.50
2022-09-04T11:15:32.451Z,2.15
2022-09-04T11:18:22.456Z,2.63
2022-09-04T11:21:32.409Z,2.60
2022-09-04T11:24:22.600Z,2.45
2022-09-04T11:27:36.078Z,2.55
2022-09-04T11:30:07.851Z,2.67
2022-09-04T11:32:52.625Z,2.38
2022-09-04T11:35:56.222Z,2.50
2022-09-04T11:38:43.821Z,2.20
2022-09-04T11:41:47.769Z,2.15
2022-09-04T11:44:47.724Z,2.30
2022-09-04T11:47:54.412Z,2.40
2022-09-04T11:50:35.276Z,2.20
2022-09-04T11:53:24.141Z,2.63
2022-09-04T11:56:21.006Z,2.50
2022-09-04T11:59:02.059Z,2.20
2022-09-04T12:01:49.311Z,2.65
2022-09-04T12:04:31.056Z,1.90
2022-09-04T12:07:23.289Z,2.22
2022-09-04T12:10:00.993Z,2.10
2022-09-04T12:13:14.612Z,1.90
2022-09-04T12:16:29.344Z,2.20
2022-09-04T12:19:42.291Z,2.10
2022-09-04T12:22:36.647Z,1.90
2022-09-04T12:25:40.558Z,2.05
2022-09-04T12:28:48.141Z,2.30
2022-09-04T12:31:51.905Z,2.05
2022-09-04T12:34:41.343Z,1.90
2022-09-04T12:37:21.287Z,1.70
2022-09-04T12:40:17.066Z,1.98
2022-09-04T12:42:50.794Z,1.67
2022-09-04T12:45:25.974Z,1.83
2022-09-04T12:47:58.669Z,1.90
2022-09-04T12:50:33.941Z,1.77
2022-09-04T12:53:12.392Z,2.08
2022-09-04T12:55:46.206Z,1.77
2022-09-04T12:58:22.572Z,2.08
2022-09-04T13:00:55.658Z,1.58
2022-09-04T13:03:30.714Z,1.70
2022-09-04T13:06:09.219Z,1.85
2022-09-04T13:08:46.348Z,1.88
2022-09-04T13:11:21.418Z,1.70
2022-09-04T13:13:56.663Z,1.50
2022-09-04T13:16:32.250Z,1.60
2022-09-04T13:19:07.099Z,1.45
2022-09-04T13:21:55.553Z,1.77
2022-09-04T13:24:35.689Z,1.60
2022-09-04T13:27:15.818Z,1.70
2022-09-04T13:29:53.491Z,1.40
2022-09-04T13:32:39.894Z,1.35
2022-09-04T13:35:18.733Z,1.17
2022-09-04T13:37:57.753Z,1.60
2022-09-04T13:40:37.611Z,1.63
2022-09-04T13:43:41.094Z,1.60
2022-09-04T13:46:11.779Z,1.67
2022-09-04T13:48:43.706Z,1.80
2022-09-04T13:51:14.776Z,1.92
2022-09-04T13:53:57.754Z,1.60
2022-09-04T13:56:30.930Z,1.77
2022-09-04T13:59:02.046Z,1.70
2022-09-04T14:01:30.385Z,1.48
2022-09-04T14:04:00.713Z,1.48
2022-09-04T14:06:31.832Z,1.55
2022-09-04T14:09:04.668Z,1.67
2022-09-04T14:11:58.154Z,1.58
2022-09-04T14:14:40.468Z,1.63
2022-09-04T14:17:08.634Z,1.80
2022-09-04T14:19:45.173Z,1.58
2022-09-04T14:22:24.014Z,1.42
2022-09-04T14:25:01.176Z,1.50
2022-09-04T14:27:38.905Z,1.65
2022-09-04T14:30:10.737Z,1.77
2022-09-04T14:32:57.618Z,1.70
2022-09-04T14:35:34.221Z,1.60
2022-09-04T14:38:14.167Z,1.38
2022-09-04T14:40:49.904Z,1.83
2022-09-04T14:43:22.559Z,1.50
2022-09-04T14:46:02.529Z,1.40
2022-09-04T14:48:31.897Z,1.40
2022-09-04T14:51:13.372Z,1.40
2022-09-04T14:53:47.553Z,1.40
2022-09-04T14:56:33.257Z,1.50
2022-09-04T14:59:08.531Z,1.50
2022-09-04T15:01:39.868Z,1.38
2022-09-04T15:04:13.091Z,1.58
2022-09-04T15:07:07.456Z,1.75
2022-09-04T15:09:35.301Z,1.70
2022-09-04T15:12:24.525Z,1.50
2022-09-04T15:14:56.104Z,1.67
2022-09-04T15:17:28.457Z,1.67
2022-09-04T15:20:00.962Z,1.67
2022-09-04T15:22:34.842Z,1.80
2022-09-04T15:25:06.140Z,1.50
2022-09-04T15:27:43.586Z,1.70
2022-09-04T15:30:18.920Z,1.75
2022-09-04T15:32:48.021Z,1.50
2022-09-04T15:35:23.944Z,1.47
2022-09-04T15:37:54.109Z,1.47
2022-09-04T15:40:27.459Z,1.50
2022-09-04T15:43:02.635Z,1.80
2022-09-04T15:45:36.313Z,1.77
2022-09-04T15:48:16.414Z,1.93
2022-09-04T15:50:58.245Z,1.65
2022-09-04T15:53:29.017Z,2.33
2022-09-04T15:56:09.369Z,2.27
2022-09-04T15:58:47.100Z,1.80
2022-09-04T16:01:17.452Z,2.22
2022-09-04T16:04:00.231Z,1.80
2022-09-04T16:06:32.589Z,2.63
2022-09-04T16:09:03.753Z,1.85
2022-09-04T16:11:35.391Z,2.10
2022-09-04T16:14:06.237Z,1.70
2022-09-04T16:16:42.144Z,1.63
2022-09-04T16:19:18.150Z,2.10
2022-09-04T16:21:52.359Z,2.00
2022-09-04T16:24:22.610Z,2.13
2022-09-04T16:26:52.748Z,2.97
2022-09-04T16:29:36.352Z,2.88
2022-09-04T16:32:06.717Z,3.17
2022-09-04T16:34:37.654Z,2.80
2022-09-04T16:37:10.690Z,1.90
2022-09-04T16:39:48.545Z,1.83
2022-09-04T16:42:21.843Z,1.70
2022-09-04T16:44:52.889Z,1.60
2022-09-04T16:47:24.371Z,1.80
2022-09-04T16:49:57.768Z,1.77
2022-09-04T16:52:44.418Z,2.28
2022-09-04T16:55:15.154Z,2.00
2022-09-04T16:57:50.374Z,1.90
2022-09-04T17:00:22.274Z,1.77
2022-09-04T17:02:53.865Z,1.90
2022-09-04T17:05:28.021Z,1.90
2022-09-04T17:07:59.557Z,1.60
2022-09-04T17:10:36.589Z,1.90
2022-09-04T17:13:10.298Z,1.90
2022-09-04T17:15:53.351Z,1.80
2022-09-04T17:18:22.747Z,1.60
2022-09-04T17:25:40.575Z,1.63
2022-09-04T17:28:56.418Z,1.47
2022-09-04T17:29:10.499Z,1.90
2022-09-04T17:29:38.326Z,1.60
2022-09-04T17:34:07.066Z,1.67
2022-09-04T17:40:36.203Z,1.70
2022-09-04T17:40:56.293Z,1.57
2022-09-04T17:41:39.476Z,1.83
2022-09-04T17:44:16.591Z,1.73
2022-09-04T17:46:45.842Z,1.90
2022-09-04T17:49:20.058Z,1.87
2022-09-04T17:51:57.604Z,2.07
2022-09-04T17:54:28.897Z,1.90
2022-09-04T17:57:00.739Z,2.17
2022-09-04T17:59:32.655Z,1.80
2022-09-04T18:02:05.409Z,1.70
2022-09-04T18:04:40.142Z,2.10
2022-09-04T18:07:56.859Z,1.90
2022-09-04T18:10:09.605Z,1.80
2022-09-04T18:12:41.017Z,2.03
2022-09-04T18:15:33.504Z,2.00
2022-09-04T18:18:08.784Z,2.10
2022-09-04T18:20:42.268Z,2.13
2022-09-04T18:23:51.083Z,2.27
2022-09-04T18:26:27.896Z,2.10
2022-09-04T18:30:06.648Z,2.03
2022-09-04T18:37:12.871Z,1.90
2022-09-04T18:37:22.282Z,2.03
2022-09-04T18:38:04.840Z,2.23
2022-09-04T18:40:58.995Z,2.00
2022-09-04T18:50:03.621Z,2.10
2022-09-04T18:50:34.462Z,2.47
2022-09-04T18:50:53.075Z,1.80
2022-09-04T18:52:04.421Z,2.33
2022-09-04T18:54:39.608Z,2.20
2022-09-04T18:57:21.488Z,2.00
2022-09-04T18:59:55.741Z,2.40
2022-09-04T19:02:47.478Z,2.40
2022-09-04T19:05:22.519Z,2.80
2022-09-04T19:07:54.144Z,2.40
2022-09-04T19:10:25.455Z,2.57
2022-09-04T19:13:02.503Z,2.50
2022-09-04T19:15:57.200Z,2.57
2022-09-04T19:18:30.197Z,3.00
2022-09-04T19:21:18.913Z,2.97
2022-09-04T19:23:50.440Z,2.37
2022-09-04T19:26:26.801Z,2.57
2022-09-04T19:28:57.648Z,2.60
2022-09-04T19:31:30.061Z,2.60
2022-09-04T19:34:00.021Z,2.20
2022-09-04T19:36:35.378Z,2.47
2022-09-04T19:46:04.663Z,2.20
2022-09-04T19:46:15.176Z,2.80
2022-09-04T19:46:19.715Z,2.47
2022-09-04T19:47:56.793Z,2.60
2022-09-04T19:53:22.726Z,3.07
2022-09-04T19:53:41.140Z,2.80
2022-09-04T19:56:23.852Z,2.97
2022-09-04T19:58:55.774Z,2.87
2022-09-04T20:01:26.498Z,2.77
2022-09-04T20:03:58.343Z,2.50
2022-09-04T20:06:30.170Z,2.77
2022-09-04T20:09:03.509Z,2.67
2022-09-04T20:11:36.590Z,2.67
2022-09-04T20:14:14.753Z,2.93
2022-09-04T20:16:52.542Z,2.83
2022-09-04T20:19:28.619Z,3.23
2022-09-04T20:22:01.763Z,3.03
2022-09-04T20:24:36.278Z,2.73
2022-09-04T20:27:09.350Z,3.20
2022-09-04T20:29:40.706Z,2.90
2022-09-04T20:32:12.999Z,3.07
2022-09-04T20:34:44.842Z,2.77
2022-09-04T20:37:24.901Z,3.37
2022-09-04T20:40:01.341Z,3.30
2022-09-04T20:42:34.760Z,3.00
2022-09-04T20:46:40.123Z,3.10
2022-09-04T20:52:41.686Z,3.00
2022-09-04T20:53:04.784Z,3.10
2022-09-04T20:53:41.313Z,3.20
2022-09-04T20:56:29.535Z,3.37
2022-09-04T21:03:06.295Z,3.47
2022-09-04T21:03:19.369Z,3.70
2022-09-04T21:05:15.073Z,3.10
2022-09-04T21:07:47.397Z,3.77
2022-09-04T21:10:22.933Z,3.30
2022-09-04T21:13:13.544Z,3.40
2022-09-04T21:15:44.639Z,3.47
2022-09-04T21:18:26.894Z,3.60
2022-09-04T21:21:13.000Z,3.67
2022-09-04T21:24:03.408Z,3.60
2022-09-04T21:27:02.158Z,3.27
2022-09-04T21:29:42.687Z,3.60
2022-09-04T21:32:32.020Z,3.63
2022-09-04T21:35:09.024Z,3.57
2022-09-04T21:37:42.813Z,4.13
2022-09-04T21:40:51.567Z,3.60
2022-09-04T21:43:50.861Z,3.50
2022-09-04T21:46:29.377Z,3.60
2022-09-04T21:49:26.426Z,3.90
2022-09-04T21:52:13.499Z,4.07
2022-09-04T21:57:08.937Z,3.87
2022-09-04T22:02:36.658Z,3.67
2022-09-04T22:02:46.281Z,3.87
2022-09-04T22:04:31.357Z,3.50
2022-09-04T22:09:38.389Z,3.60
2022-09-04T22:13:30.722Z,4.27
2022-09-04T22:13:41.032Z,3.90
2022-09-04T22:16:19.629Z,4.50
2022-09-04T22:19:02.275Z,4.67
2022-09-04T22:21:45.143Z,4.50
2022-09-04T22:24:37.738Z,5.70
2022-09-04T22:27:20.024Z,5.10
2022-09-04T22:30:09.285Z,4.90
2022-09-04T22:33:09.625Z,5.20
2022-09-04T22:36:13.254Z,4.60
2022-09-04T22:39:01.766Z,4.30
2022-09-04T22:41:52.966Z,4.47
2022-09-04T22:44:30.976Z,4.57
2022-09-04T22:47:24.950Z,4.57
2022-09-04T22:50:07.182Z,4.33
2022-09-04T22:52:42.858Z,4.23
2022-09-04T22:55:40.026Z,4.50
2022-09-04T22:58:32.217Z,3.90
2022-09-04T23:01:15.179Z,4.20
2022-09-04T23:03:55.967Z,4.50
2022-09-04T23:10:55.555Z,4.37
2022-09-04T23:13:47.438Z,3.87
2022-09-04T23:13:52.519Z,3.80
2022-09-04T23:16:00.586Z,4.20
2022-09-04T23:22:35.509Z,4.00
2022-09-04T23:26:38.917Z,4.20
2022-09-04T23:26:43.773Z,3.70
2022-09-04T23:27:46.066Z,3.73
2022-09-04T23:30:26.890Z,3.60
2022-09-04T23:33:27.155Z,3.90
2022-09-04T23:36:02.597Z,3.53
2022-09-04T23:38:58.893Z,3.40
2022-09-04T23:41:53.349Z,3.47
2022-09-04T23:44:41.702Z,3.37
2022-09-04T23:47:48.769Z,3.30
2022-09-04T23:50:28.255Z,3.30
2022-09-04T23:53:04.000Z,3.50
2022-09-04T23:55:48.873Z,3.03
2022-09-04T23:58:47.226Z,3.03
